createdAt,value
2023-02-12T00:01:19.607Z,37.23
2023-02-12T00:03:48.280Z,36.57
2023-02-12T00:06:16.671Z,41.40
2023-02-12T00:08:45.031Z,39.03
2023-02-12T00:11:15.038Z,41.83
2023-02-12T00:13:44.148Z,36.27
2023-02-12T00:16:15.525Z,33.53
2023-02-12T00:18:45.999Z,36.93
2023-02-12T00:21:15.089Z,41.20
2023-02-12T00:23:43.458Z,39.17
2023-02-12T00:26:13.244Z,41.93
2023-02-12T00:28:42.055Z,41.03
2023-02-12T00:31:12.622Z,39.37
2023-02-12T00:33:41.333Z,39.57
2023-02-12T00:36:14.432Z,43.37
2023-02-12T00:38:43.260Z,44.20
2023-02-12T00:41:12.177Z,41.63
2023-02-12T00:43:40.575Z,40.40
2023-02-12T00:46:09.162Z,40.93
2023-02-12T00:48:38.439Z,39.77
2023-02-12T00:51:07.761Z,40.50
2023-02-12T00:53:37.755Z,41.10
2023-02-12T00:56:06.568Z,41.93
2023-02-12T00:58:34.979Z,39.43
2023-02-12T01:01:03.284Z,40.53
2023-02-12T01:03:31.595Z,42.70
2023-02-12T01:05:59.978Z,40.93
2023-02-12T01:08:28.364Z,43.90
2023-02-12T01:11:01.305Z,41.97
2023-02-12T01:13:30.497Z,47.50
2023-02-12T01:16:08.819Z,42.83
2023-02-12T01:18:37.706Z,44.60
2023-02-12T01:21:11.619Z,43.17
2023-02-12T01:23:39.995Z,41.83
2023-02-12T01:26:11.684Z,43.13
2023-02-12T01:28:40.451Z,43.87
2023-02-12T01:31:13.217Z,39.37
2023-02-12T01:33:42.340Z,50.83
2023-02-12T01:36:12.406Z,46.63
2023-02-12T01:38:40.802Z,51.63
2023-02-12T01:41:12.982Z,45.07
2023-02-12T01:43:41.541Z,50.30
2023-02-12T01:46:11.735Z,43.40
2023-02-12T01:48:43.414Z,45.23
2023-02-12T01:51:16.017Z,51.30
2023-02-12T01:53:48.338Z,45.03
2023-02-12T01:56:18.800Z,46.57
2023-02-12T01:58:49.199Z,42.97
2023-02-12T02:01:21.524Z,46.23
2023-02-12T02:03:53.582Z,43.77
2023-02-12T02:06:27.648Z,40.67
2023-02-12T02:08:57.365Z,46.27
2023-02-12T02:11:44.565Z,53.58
2023-02-12T02:14:30.165Z,43.60
2023-02-12T02:17:17.385Z,48.90
2023-02-12T02:20:11.998Z,46.33
2023-02-12T02:22:44.861Z,45.50
2023-02-12T02:25:37.566Z,45.53
2023-02-12T02:28:24.418Z,46.57
2023-02-12T02:30:59.417Z,46.70
2023-02-12T02:33:38.711Z,43.00
2023-02-12T02:36:24.871Z,50.57
2023-02-12T02:38:58.435Z,47.37
2023-02-12T02:41:32.300Z,43.60
2023-02-12T02:44:04.787Z,40.77
2023-02-12T02:46:38.522Z,47.57
2023-02-12T02:49:08.915Z,51.17
2023-02-12T02:51:41.582Z,44.77
2023-02-12T02:54:15.106Z,41.63
2023-02-12T02:56:48.832Z,44.80
2023-02-12T02:59:21.261Z,49.93
2023-02-12T03:01:56.055Z,49.70
2023-02-12T03:04:32.506Z,40.90
2023-02-12T03:07:07.348Z,42.97
2023-02-12T03:09:39.978Z,57.20
2023-02-12T03:12:14.483Z,48.00
2023-02-12T03:14:46.360Z,43.43
2023-02-12T03:17:22.033Z,47.57
2023-02-12T03:19:56.526Z,41.37
2023-02-12T03:22:29.641Z,44.33
2023-02-12T03:25:04.840Z,44.07
2023-02-12T03:27:36.174Z,49.53
2023-02-12T03:30:05.530Z,48.80
2023-02-12T03:32:44.966Z,42.80
2023-02-12T03:35:20.387Z,40.33
2023-02-12T03:37:57.175Z,49.80
2023-02-12T03:40:34.184Z,42.30
2023-02-12T03:43:08.114Z,47.73
2023-02-12T03:45:45.037Z,43.07
2023-02-12T03:48:23.526Z,45.57
2023-02-12T03:50:55.931Z,42.30
2023-02-12T03:53:24.556Z,43.03
2023-02-12T03:55:58.447Z,46.23
2023-02-12T03:58:30.651Z,46.90
2023-02-12T04:00:59.824Z,44.33
2023-02-12T04:03:30.830Z,40.73
2023-02-12T04:05:59.356Z,50.25
2023-02-12T04:08:29.682Z,44.93
2023-02-12T04:11:09.062Z,50.40
2023-02-12T04:13:46.434Z,47.27
2023-02-12T04:16:23.772Z,46.13
2023-02-12T04:18:54.698Z,45.27
2023-02-12T04:21:36.522Z,52.10
2023-02-12T04:24:12.753Z,44.97
2023-02-12T04:26:49.042Z,47.33
2023-02-12T04:29:24.683Z,46.00
2023-02-12T04:31:59.345Z,43.17
2023-02-12T04:34:34.123Z,47.63
2023-02-12T04:37:08.938Z,51.20
2023-02-12T04:39:41.018Z,46.83
2023-02-12T04:42:09.766Z,51.47
2023-02-12T04:44:43.307Z,49.27
2023-02-12T04:47:13.285Z,49.63
2023-02-12T04:49:43.494Z,48.53
2023-02-12T04:52:11.791Z,51.20
2023-02-12T04:54:40.228Z,48.87
2023-02-12T04:57:08.558Z,52.03
2023-02-12T04:59:36.858Z,49.33
2023-02-12T05:02:05.208Z,54.83
2023-02-12T05:04:33.505Z,60.57
2023-02-12T05:07:03.221Z,53.00
2023-02-12T05:09:31.589Z,53.47
2023-02-12T05:11:59.863Z,54.33
2023-02-12T05:14:28.207Z,53.87
2023-02-12T05:16:56.534Z,61.85
2023-02-12T05:19:24.813Z,55.50
2023-02-12T05:21:53.199Z,52.17
2023-02-12T05:24:22.902Z,54.03
2023-02-12T05:26:52.744Z,52.40
2023-02-12T05:29:21.544Z,57.27
2023-02-12T05:31:50.007Z,65.07
2023-02-12T05:34:18.402Z,58.30
2023-02-12T05:36:46.702Z,58.93
2023-02-12T05:39:15.022Z,58.00
2023-02-12T05:41:44.821Z,50.43
2023-02-12T05:44:15.219Z,55.63
2023-02-12T05:46:43.992Z,56.53
2023-02-12T05:49:12.658Z,61.03
2023-02-12T05:51:41.427Z,53.60
2023-02-12T05:54:10.106Z,57.60
2023-02-12T05:56:43.212Z,57.80
2023-02-12T05:59:16.966Z,62.37
2023-02-12T06:01:46.663Z,56.90
2023-02-12T06:04:18.630Z,53.67
2023-02-12T06:06:47.137Z,64.77
2023-02-12T06:09:15.697Z,56.10
2023-02-12T06:11:44.586Z,55.77
2023-02-12T06:14:16.505Z,53.33
2023-02-12T06:16:47.666Z,54.87
2023-02-12T06:19:16.134Z,55.70
2023-02-12T06:21:54.219Z,56.77
2023-02-12T06:24:22.562Z,62.90
2023-02-12T06:26:51.936Z,58.50
2023-02-12T06:29:22.300Z,59.33
2023-02-12T06:31:51.216Z,55.07
2023-02-12T06:34:19.666Z,51.13
2023-02-12T06:36:49.340Z,63.37
2023-02-12T06:39:18.287Z,58.20
2023-02-12T06:41:46.572Z,52.47
2023-02-12T06:44:14.944Z,54.40
2023-02-12T06:46:44.626Z,56.00
2023-02-12T06:49:14.311Z,56.17
2023-02-12T06:51:42.810Z,57.33
2023-02-12T06:54:15.954Z,58.13
2023-02-12T06:56:44.355Z,58.83
2023-02-12T06:59:16.422Z,50.40
2023-02-12T07:01:46.335Z,61.70
2023-02-12T07:04:14.905Z,53.13
2023-02-12T07:06:43.294Z,49.07
2023-02-12T07:09:11.587Z,47.17
2023-02-12T07:11:40.133Z,51.50
2023-02-12T07:14:08.897Z,51.37
2023-02-12T07:16:37.272Z,59.77
2023-02-12T07:19:07.002Z,46.57
2023-02-12T07:21:35.319Z,55.23
2023-02-12T07:24:22.144Z,50.03
2023-02-12T07:26:50.462Z,48.43
2023-02-12T07:29:18.761Z,48.93
2023-02-12T07:31:47.301Z,43.57
2023-02-12T07:34:17.049Z,44.53
2023-02-12T07:36:45.355Z,47.50
2023-02-12T07:39:14.244Z,40.63
2023-02-12T07:41:42.582Z,45.20
2023-02-12T07:44:13.317Z,45.00
2023-02-12T07:46:44.531Z,42.17
2023-02-12T07:49:17.679Z,42.90
2023-02-12T07:51:46.270Z,41.67
2023-02-12T07:54:15.233Z,40.20
2023-02-12T07:56:47.117Z,42.63
2023-02-12T07:59:18.085Z,41.53
2023-02-12T08:01:49.262Z,44.63
2023-02-12T08:04:20.406Z,35.27
2023-02-12T08:06:50.430Z,39.57
2023-02-12T08:09:21.398Z,35.67
2023-02-12T08:11:50.057Z,37.23
2023-02-12T08:14:20.390Z,39.60
2023-02-12T08:16:49.960Z,35.57
2023-02-12T08:19:23.957Z,34.50
2023-02-12T08:21:56.076Z,33.03
2023-02-12T08:24:25.135Z,34.30
2023-02-12T08:26:53.470Z,27.60
2023-02-12T08:29:24.277Z,36.27
2023-02-12T08:31:57.324Z,30.97
2023-02-12T08:34:28.871Z,29.10
2023-02-12T08:36:58.022Z,31.00
2023-02-12T08:39:27.920Z,34.20
2023-02-12T08:41:56.914Z,28.33
2023-02-12T08:44:25.255Z,26.60
2023-02-12T08:46:55.673Z,26.07
2023-02-12T08:49:27.878Z,28.77
2023-02-12T08:51:58.088Z,28.10
2023-02-12T08:54:28.081Z,31.43
2023-02-12T08:56:56.779Z,30.97
2023-02-12T08:59:25.451Z,27.00
2023-02-12T09:01:55.200Z,29.75
2023-02-12T09:04:28.020Z,32.03
2023-02-12T09:06:57.046Z,32.73
2023-02-12T09:09:25.550Z,27.47
2023-02-12T09:11:53.928Z,29.27
2023-02-12T09:14:24.406Z,28.77
2023-02-12T09:16:54.298Z,29.80
2023-02-12T09:19:23.368Z,28.57
2023-02-12T09:21:57.048Z,29.30
2023-02-12T09:24:26.226Z,30.15
2023-02-12T09:26:54.626Z,33.40
2023-02-12T09:29:22.956Z,29.97
2023-02-12T09:31:51.453Z,26.80
2023-02-12T09:34:19.989Z,24.73
2023-02-12T09:36:48.314Z,25.60
2023-02-12T09:39:18.127Z,27.87
2023-02-12T09:42:16.857Z,25.70
2023-02-12T09:44:51.064Z,21.23
2023-02-12T09:47:27.766Z,22.30
2023-02-12T09:50:12.115Z,25.80
2023-02-12T09:52:40.946Z,29.17
2023-02-12T09:55:15.544Z,27.10
2023-02-12T09:57:44.518Z,25.90
2023-02-12T10:00:17.864Z,30.80
2023-02-12T10:02:46.883Z,29.60
2023-02-12T10:05:19.969Z,36.97
2023-02-12T10:08:05.891Z,32.50
2023-02-12T10:10:47.875Z,31.20
2023-02-12T10:13:28.437Z,34.33
2023-02-12T10:16:07.778Z,36.10
2023-02-12T10:19:04.807Z,33.70
2023-02-12T10:21:47.994Z,36.93
2023-02-12T10:24:34.631Z,40.53
2023-02-12T10:27:12.131Z,35.93
2023-02-12T10:29:43.850Z,29.80
2023-02-12T10:32:20.885Z,28.13
2023-02-12T10:34:52.485Z,31.73
2023-02-12T10:37:32.566Z,32.07
2023-02-12T10:40:07.334Z,30.53
2023-02-12T10:42:41.743Z,28.93
2023-02-12T10:45:16.259Z,26.10
2023-02-12T10:47:45.668Z,30.20
2023-02-12T10:50:21.041Z,40.53
2023-02-12T10:52:55.064Z,31.60
2023-02-12T10:55:29.047Z,30.60
2023-02-12T10:58:00.849Z,24.83
2023-02-12T11:00:32.298Z,34.97
2023-02-12T11:03:07.132Z,32.30
2023-02-12T11:05:37.255Z,21.37
2023-02-12T11:08:06.373Z,18.90
2023-02-12T11:10:39.470Z,21.85
2023-02-12T11:13:25.388Z,21.17
2023-02-12T11:15:54.474Z,21.07
2023-02-12T11:18:26.545Z,22.20
2023-02-12T11:20:58.466Z,25.33
2023-02-12T11:23:29.452Z,24.20
2023-02-12T11:26:00.695Z,21.43
2023-02-12T11:28:31.368Z,19.73
2023-02-12T11:31:02.591Z,24.70
2023-02-12T11:33:34.722Z,21.07
2023-02-12T11:36:13.428Z,25.97
2023-02-12T11:38:51.263Z,26.00
2023-02-12T11:41:28.561Z,20.30
2023-02-12T11:43:58.584Z,20.87
2023-02-12T11:46:29.242Z,24.47
2023-02-12T11:49:00.860Z,25.87
2023-02-12T11:51:31.795Z,22.43
2023-02-12T11:54:02.347Z,24.07
2023-02-12T11:56:44.188Z,20.83
2023-02-12T11:59:26.025Z,24.70
2023-02-12T12:01:57.946Z,21.60
2023-02-12T12:04:28.181Z,22.00
2023-02-12T12:07:02.357Z,20.23
2023-02-12T12:09:38.605Z,20.30
2023-02-12T12:12:13.695Z,22.63
2023-02-12T12:15:04.822Z,24.93
2023-02-12T12:18:03.757Z,20.93
2023-02-12T12:20:38.132Z,24.80
2023-02-12T12:23:11.263Z,22.58
2023-02-12T12:25:48.409Z,19.67
2023-02-12T12:28:33.300Z,22.93
2023-02-12T12:31:09.365Z,19.97
2023-02-12T12:33:44.510Z,20.83
2023-02-12T12:36:47.565Z,17.93
2023-02-12T12:39:25.485Z,17.80
2023-02-12T12:42:34.939Z,20.73
2023-02-12T12:45:17.645Z,16.63
2023-02-12T12:48:01.534Z,18.40
2023-02-12T12:50:43.285Z,20.47
2023-02-12T12:53:30.272Z,17.87
2023-02-12T12:56:17.589Z,16.80
2023-02-12T12:59:32.094Z,16.73
2023-02-12T13:02:52.786Z,15.43
2023-02-12T13:05:52.192Z,17.97
2023-02-12T13:08:37.984Z,21.88
2023-02-12T13:11:22.424Z,21.77
2023-02-12T13:14:22.147Z,18.40
2023-02-12T13:16:56.071Z,25.70
2023-02-12T13:19:37.250Z,18.13
2023-02-12T13:22:12.151Z,19.60
2023-02-12T13:24:46.819Z,20.80
2023-02-12T13:27:19.881Z,23.13
2023-02-12T13:29:52.939Z,17.17
2023-02-12T13:32:27.120Z,17.87
2023-02-12T13:34:57.445Z,20.93
2023-02-12T13:38:01.920Z,15.53
2023-02-12T13:43:39.129Z,19.07
2023-02-12T13:46:14.475Z,17.27
2023-02-12T13:48:50.753Z,20.63
2023-02-12T13:51:30.007Z,17.47
2023-02-12T13:54:12.034Z,18.40
2023-02-12T13:56:44.007Z,19.27
2023-02-12T13:59:47.434Z,19.67
2023-02-12T14:02:52.139Z,15.87
2023-02-12T14:05:29.732Z,18.83
2023-02-12T14:08:01.958Z,19.50
2023-02-12T14:10:36.222Z,20.27
2023-02-12T14:13:18.947Z,19.77
2023-02-12T14:15:51.263Z,22.80
2023-02-12T14:18:38.157Z,15.37
2023-02-12T14:21:43.620Z,16.13
2023-02-12T14:25:00.784Z,22.40
2023-02-12T14:27:37.878Z,21.23
2023-02-12T14:30:30.620Z,18.00
2023-02-12T14:33:15.191Z,17.10
2023-02-12T14:35:44.602Z,20.40
2023-02-12T14:39:04.133Z,17.50
2023-02-12T14:41:44.401Z,19.63
2023-02-12T14:44:47.762Z,22.83
2023-02-12T14:47:32.139Z,15.63
2023-02-12T14:50:04.923Z,21.03
2023-02-12T14:52:39.437Z,22.87
2023-02-12T14:55:20.168Z,19.30
2023-02-12T14:57:49.123Z,20.10
2023-02-12T15:00:29.681Z,16.13
2023-02-12T15:03:04.046Z,18.30
2023-02-12T15:05:38.169Z,22.70
2023-02-12T15:08:12.810Z,21.47
2023-02-12T15:10:47.485Z,25.10
2023-02-12T15:13:25.460Z,42.50
2023-02-12T15:16:03.676Z,24.93
2023-02-12T15:18:49.872Z,26.43
2023-02-12T15:21:22.987Z,23.23
2023-02-12T15:24:02.458Z,22.37
2023-02-12T15:26:33.467Z,27.93
2023-02-12T15:29:02.534Z,23.30
2023-02-12T15:31:33.851Z,32.13
2023-02-12T15:34:05.981Z,22.13
2023-02-12T15:36:35.354Z,16.90
2023-02-12T15:39:06.453Z,24.83
2023-02-12T15:41:40.341Z,20.40
2023-02-12T15:44:26.342Z,26.77
2023-02-12T15:46:58.444Z,25.43
2023-02-12T15:49:29.792Z,24.73
2023-02-12T15:51:59.065Z,23.60
2023-02-12T15:54:28.647Z,25.77
2023-02-12T15:56:58.486Z,24.97
2023-02-12T15:59:29.299Z,25.83
2023-02-12T16:02:03.715Z,26.57
2023-02-12T16:04:36.592Z,29.13
2023-02-12T16:07:05.086Z,26.07
2023-02-12T16:13:19.052Z,22.93
2023-02-12T16:15:47.494Z,26.67
2023-02-12T16:18:26.940Z,25.27
2023-02-12T16:21:07.873Z,30.07
2023-02-12T16:23:37.315Z,27.97
2023-02-12T16:26:06.479Z,34.47
2023-02-12T16:28:35.086Z,26.10
2023-02-12T16:31:12.565Z,27.70
2023-02-12T16:33:49.699Z,33.47
2023-02-12T16:36:54.255Z,27.20
2023-02-12T16:40:09.652Z,31.23
2023-02-12T16:42:41.107Z,32.93
2023-02-12T16:45:35.436Z,31.67
2023-02-12T16:48:08.567Z,26.73
2023-02-12T16:57:24.937Z,37.50
2023-02-12T16:59:53.277Z,40.73
2023-02-12T17:02:21.683Z,38.80
2023-02-12T17:04:50.124Z,39.13
2023-02-12T17:07:23.474Z,40.17
2023-02-12T17:09:51.902Z,42.90
2023-02-12T17:12:20.585Z,46.43
2023-02-12T17:14:48.991Z,32.60
2023-02-12T17:17:17.513Z,37.73
2023-02-12T17:19:46.074Z,40.47
2023-02-12T17:22:23.209Z,31.23
2023-02-12T17:24:53.461Z,35.40
2023-02-12T17:27:22.104Z,37.73
2023-02-12T17:29:50.666Z,36.87
2023-02-12T17:32:19.130Z,48.10
2023-02-12T17:34:49.140Z,41.10
2023-02-12T17:37:18.490Z,36.17
2023-02-12T17:39:48.466Z,41.13
2023-02-12T17:42:16.916Z,38.67
2023-02-12T17:44:45.444Z,43.10
2023-02-12T17:47:13.939Z,38.47
2023-02-12T17:49:42.818Z,42.37
2023-02-12T17:52:11.422Z,47.30
2023-02-12T17:54:40.029Z,45.57
2023-02-12T17:57:13.013Z,46.53
2023-02-12T17:59:42.562Z,47.17
2023-02-12T18:02:12.515Z,54.60
2023-02-12T18:04:41.050Z,55.40
2023-02-12T18:07:09.570Z,49.47
2023-02-12T18:09:39.716Z,50.43
2023-02-12T18:12:10.302Z,50.57
2023-02-12T18:14:38.963Z,46.07
2023-02-12T18:17:07.410Z,55.87
2023-02-12T18:19:36.035Z,55.27
2023-02-12T18:22:04.545Z,52.20
2023-02-12T18:24:34.654Z,51.67
2023-02-12T18:27:03.285Z,46.57
2023-02-12T18:29:34.446Z,58.17
2023-02-12T18:32:02.835Z,65.83
2023-02-12T18:34:31.382Z,56.50
2023-02-12T18:37:00.015Z,67.00
2023-02-12T18:39:29.322Z,62.47
2023-02-12T18:41:57.794Z,65.60
2023-02-12T18:44:26.310Z,60.93
2023-02-12T18:46:57.484Z,59.97
2023-02-12T18:49:26.029Z,60.20
2023-02-12T18:51:54.780Z,53.90
2023-02-12T18:54:23.294Z,56.53
2023-02-12T18:56:53.555Z,64.67
2023-02-12T18:59:22.654Z,60.13
2023-02-12T19:01:51.892Z,71.28
2023-02-12T19:04:23.989Z,61.87
2023-02-12T19:06:54.853Z,58.50
2023-02-12T19:09:26.094Z,59.53
2023-02-12T19:11:56.500Z,60.27
2023-02-12T19:14:26.179Z,54.80
2023-02-12T19:16:55.372Z,53.43
2023-02-12T19:19:25.618Z,55.07
2023-02-12T19:21:54.144Z,58.30
2023-02-12T19:24:22.609Z,54.47
2023-02-12T19:26:53.768Z,56.73
2023-02-12T19:29:22.597Z,48.80
2023-02-12T19:31:51.122Z,51.97
2023-02-12T19:34:21.349Z,52.57
2023-02-12T19:36:51.644Z,50.17
2023-02-12T19:39:22.063Z,52.37
2023-02-12T19:41:50.975Z,56.57
2023-02-12T19:44:21.179Z,50.67
2023-02-12T19:46:50.351Z,46.13
2023-02-12T19:49:20.473Z,51.47
2023-02-12T19:51:51.052Z,56.43
2023-02-12T19:54:21.789Z,51.07
2023-02-12T19:56:50.932Z,48.27
2023-02-12T19:59:22.073Z,51.87
2023-02-12T20:01:50.731Z,55.67
2023-02-12T20:04:23.149Z,55.40
2023-02-12T20:06:53.013Z,54.10
2023-02-12T20:09:22.304Z,53.47
2023-02-12T20:11:50.931Z,58.13
2023-02-12T20:14:21.043Z,57.70
2023-02-12T20:16:50.212Z,56.13
2023-02-12T20:19:21.619Z,59.40
2023-02-12T20:21:55.272Z,61.37
2023-02-12T20:24:26.936Z,61.47
2023-02-12T20:26:55.531Z,67.23
2023-02-12T20:29:24.470Z,76.83
2023-02-12T20:31:53.184Z,73.13
2023-02-12T20:34:22.853Z,76.33
2023-02-12T20:36:51.768Z,80.47
2023-02-12T20:39:22.162Z,88.97
2023-02-12T20:41:52.969Z,89.07
2023-02-12T20:44:22.944Z,84.97
2023-02-12T20:46:56.449Z,90.73
2023-02-12T20:49:27.566Z,94.33
2023-02-12T20:51:56.144Z,88.33
2023-02-12T20:54:25.107Z,86.13
2023-02-12T20:56:54.946Z,88.43
2023-02-12T20:59:23.423Z,88.83
2023-02-12T21:01:52.008Z,92.83
2023-02-12T21:04:21.246Z,88.80
2023-02-12T21:06:49.704Z,86.20
2023-02-12T21:09:18.880Z,83.23
2023-02-12T21:11:47.791Z,90.60
2023-02-12T21:14:22.216Z,86.50
2023-02-12T21:16:52.032Z,77.60
2023-02-12T21:19:20.413Z,71.20
2023-02-12T21:21:49.146Z,81.93
2023-02-12T21:24:20.361Z,77.77
2023-02-12T21:26:49.097Z,85.85
2023-02-12T21:29:19.301Z,76.93
2023-02-12T21:31:49.980Z,75.93
2023-02-12T21:34:21.237Z,73.77
2023-02-12T21:36:50.795Z,75.20
2023-02-12T21:39:25.266Z,74.03
2023-02-12T21:41:55.901Z,73.17
2023-02-12T21:44:26.989Z,74.53
2023-02-12T21:46:55.962Z,80.57
2023-02-12T21:49:27.858Z,75.97
2023-02-12T21:51:58.507Z,74.23
2023-02-12T21:54:27.395Z,75.23
2023-02-12T21:56:56.279Z,71.83
2023-02-12T21:59:26.663Z,75.97
2023-02-12T22:01:58.452Z,68.50
2023-02-12T22:04:27.426Z,72.40
2023-02-12T22:06:56.668Z,73.17
2023-02-12T22:09:25.147Z,72.07
2023-02-12T22:11:53.698Z,69.83
2023-02-12T22:14:23.093Z,77.28
2023-02-12T22:16:53.043Z,70.50
2023-02-12T22:19:21.289Z,67.73
2023-02-12T22:21:52.096Z,66.00
2023-02-12T22:24:20.437Z,63.70
2023-02-12T22:26:48.690Z,61.23
2023-02-12T22:29:18.034Z,67.40
2023-02-12T22:31:47.958Z,71.83
2023-02-12T22:34:19.253Z,57.73
2023-02-12T22:36:48.150Z,66.57
2023-02-12T22:39:17.579Z,72.17
2023-02-12T22:41:46.158Z,68.30
2023-02-12T22:44:15.829Z,67.43
2023-02-12T22:46:44.412Z,60.30
2023-02-12T22:49:12.929Z,61.23
2023-02-12T22:51:42.607Z,69.67
2023-02-12T22:54:14.891Z,67.73
2023-02-12T22:56:43.509Z,65.37
2023-02-12T22:59:13.110Z,61.47
2023-02-12T23:01:41.802Z,71.97
2023-02-12T23:04:15.222Z,66.50
2023-02-12T23:06:45.273Z,62.07
2023-02-12T23:09:16.871Z,66.40
2023-02-12T23:11:45.218Z,64.90
2023-02-12T23:14:13.782Z,63.03
2023-02-12T23:16:42.214Z,63.17
2023-02-12T23:19:11.465Z,57.23
2023-02-12T23:21:39.777Z,60.03
2023-02-12T23:24:11.542Z,59.47
2023-02-12T23:26:39.780Z,60.00
2023-02-12T23:29:08.178Z,53.70
2023-02-12T23:31:36.500Z,57.43
2023-02-12T23:34:05.232Z,67.17
2023-02-12T23:36:33.526Z,62.97
2023-02-12T23:39:01.778Z,62.47
2023-02-12T23:41:31.459Z,60.43
2023-02-12T23:43:59.728Z,63.33
2023-02-12T23:46:28.053Z,60.73
2023-02-12T23:48:56.425Z,64.03
2023-02-12T23:51:24.764Z,58.07
2023-02-12T23:53:53.054Z,60.93
2023-02-12T23:56:21.393Z,59.20
2023-02-12T23:58:51.051Z,57.60
